Boshof, South Africa
Current Conditions -  °F | °C
As of 5:00 AM on Sunday 23 Nov 2014 (Local Time) from FABL Reporting Station
Moderate Rain Moderate Rain  
Wind Chill: 57°   Ceiling: 1500
Heat Index: 57°   Visibility: 5mi
Dew Point: 55°   Wind: 3mph
Humidity: 94%   Direction: 100°E
Pressure: 30.21"   Gusts: NA
Location:  28.54°S, 25.24°E
Report Text: FABL 230300Z 10003KT 8000 RA BKN015 OVC030 14/13 Q1023 RERA NOSIG
Loading
Personal Weather Stations






























Interactive Weather Map New forecast layout! Learn more

10-Day Weather Forecast

Advertisements
Track Severe Weather on mobile